createdAt,value
2022-08-09T00:00:06.048Z,2.50
2022-08-09T00:04:00.373Z,3.00
2022-08-09T00:06:32.692Z,2.80
2022-08-09T00:09:38.225Z,2.73
2022-08-09T00:12:41.313Z,3.03
2022-08-09T00:15:58.709Z,3.20
2022-08-09T00:19:09.338Z,2.87
2022-08-09T00:22:13.713Z,2.70
2022-08-09T00:25:32.096Z,2.87
2022-08-09T00:28:36.877Z,2.57
2022-08-09T00:31:58.617Z,2.80
2022-08-09T00:35:03.323Z,3.60
2022-08-09T00:38:06.434Z,3.00
2022-08-09T00:41:11.501Z,3.27
2022-08-09T00:44:34.821Z,2.90
2022-08-09T00:47:40.673Z,2.93
2022-08-09T00:50:44.417Z,3.10
2022-08-09T00:53:55.427Z,2.90
2022-08-09T00:57:00.335Z,3.37
2022-08-09T01:00:21.310Z,2.67
2022-08-09T01:03:36.411Z,3.10
2022-08-09T01:06:53.873Z,3.00
2022-08-09T01:10:03.874Z,3.00
2022-08-09T01:13:18.408Z,4.00
2022-08-09T01:16:29.100Z,2.93
2022-08-09T01:19:42.579Z,3.23
2022-08-09T01:24:02.179Z,3.33
2022-08-09T01:26:57.258Z,3.27
2022-08-09T01:30:06.721Z,3.10
2022-08-09T01:33:14.207Z,3.27
2022-08-09T01:36:23.166Z,3.17
2022-08-09T01:39:31.117Z,3.47
2022-08-09T01:42:40.970Z,4.00
2022-08-09T01:45:47.751Z,3.53
2022-08-09T01:48:53.896Z,3.07
2022-08-09T01:51:59.138Z,3.70
2022-08-09T01:55:12.191Z,3.80
2022-08-09T01:58:18.232Z,3.43
2022-08-09T02:01:58.147Z,3.50
2022-08-09T02:04:54.760Z,3.50
2022-08-09T02:08:39.640Z,3.40
2022-08-09T02:11:42.869Z,3.27
2022-08-09T02:14:51.686Z,3.33
2022-08-09T02:18:00.750Z,3.10
2022-08-09T02:21:17.099Z,3.50
2022-08-09T02:24:29.778Z,3.97
2022-08-09T02:27:43.517Z,2.90
2022-08-09T02:31:05.791Z,3.60
2022-08-09T02:34:25.838Z,3.53
2022-08-09T02:37:45.390Z,3.50
2022-08-09T02:40:49.458Z,3.80
2022-08-09T02:43:55.699Z,3.20
2022-08-09T02:47:05.038Z,2.90
2022-08-09T02:50:14.329Z,3.07
2022-08-09T02:53:26.367Z,3.50
2022-08-09T02:56:32.761Z,2.90
2022-08-09T02:59:37.946Z,3.70
2022-08-09T03:02:46.481Z,3.10
2022-08-09T03:06:06.394Z,3.00
2022-08-09T03:09:13.340Z,2.90
2022-08-09T03:12:17.660Z,2.80
2022-08-09T03:15:23.063Z,3.20
2022-08-09T03:18:30.769Z,3.03
2022-08-09T03:21:39.786Z,3.23
2022-08-09T03:24:52.037Z,3.43
2022-08-09T03:27:57.641Z,3.77
2022-08-09T03:31:10.238Z,3.33
2022-08-09T03:34:25.661Z,3.40
2022-08-09T03:37:54.860Z,3.53
2022-08-09T03:40:53.244Z,3.10
2022-08-09T03:44:08.592Z,3.07
2022-08-09T03:47:12.165Z,3.70
2022-08-09T03:50:27.849Z,4.50
2022-08-09T03:53:37.164Z,3.77
2022-08-09T03:56:41.860Z,3.77
2022-08-09T03:59:53.419Z,3.70
2022-08-09T04:03:00.193Z,3.47
2022-08-09T04:06:05.863Z,3.60
2022-08-09T04:09:15.101Z,4.30
2022-08-09T04:12:45.404Z,4.00
2022-08-09T04:16:19.720Z,4.47
2022-08-09T04:19:30.035Z,3.73
2022-08-09T04:22:41.393Z,3.80
2022-08-09T04:25:51.898Z,3.80
2022-08-09T04:28:59.724Z,3.97
2022-08-09T04:32:05.442Z,3.80
2022-08-09T04:35:11.265Z,3.20
2022-08-09T04:38:15.720Z,3.70
2022-08-09T04:41:23.693Z,3.57
2022-08-09T04:44:27.934Z,4.00
2022-08-09T04:47:44.995Z,4.33
2022-08-09T04:50:50.022Z,4.43
2022-08-09T04:53:54.582Z,4.17
2022-08-09T04:57:04.010Z,4.50
2022-08-09T05:00:09.065Z,3.83
2022-08-09T05:03:30.507Z,4.30
2022-08-09T05:06:35.915Z,4.03
2022-08-09T05:09:42.270Z,3.53
2022-08-09T05:12:52.732Z,4.47
2022-08-09T05:15:56.535Z,3.90
2022-08-09T05:19:00.817Z,4.87
2022-08-09T05:22:06.169Z,4.60
2022-08-09T05:25:32.604Z,4.83
2022-08-09T05:28:35.890Z,5.43
2022-08-09T05:31:46.728Z,5.13
2022-08-09T05:34:53.738Z,4.77
2022-08-09T05:37:57.252Z,5.37
2022-08-09T05:41:02.775Z,5.00
2022-08-09T05:44:06.058Z,5.00
2022-08-09T05:47:09.168Z,4.87
2022-08-09T05:50:25.593Z,4.67
2022-08-09T05:53:39.521Z,4.43
2022-08-09T05:57:00.032Z,4.53
2022-08-09T06:00:03.404Z,5.03
2022-08-09T06:03:11.095Z,4.70
2022-08-09T06:06:23.839Z,4.10
2022-08-09T06:09:53.999Z,4.13
2022-08-09T06:13:02.921Z,4.40
2022-08-09T06:16:16.337Z,4.20
2022-08-09T06:19:20.799Z,3.80
2022-08-09T06:22:28.789Z,4.50
2022-08-09T06:25:32.266Z,4.40
2022-08-09T06:28:38.997Z,3.83
2022-08-09T06:32:09.222Z,4.33
2022-08-09T06:35:11.176Z,4.00
2022-08-09T06:38:16.013Z,3.43
2022-08-09T06:41:20.338Z,3.90
2022-08-09T06:44:25.104Z,3.00
2022-08-09T06:47:30.223Z,3.50
2022-08-09T06:50:43.348Z,2.95
2022-08-09T06:53:46.480Z,3.42
2022-08-09T06:56:52.996Z,3.05
2022-08-09T07:00:49.821Z,3.17
2022-08-09T07:03:27.623Z,2.60
2022-08-09T07:06:31.845Z,2.85
2022-08-09T07:09:55.690Z,3.15
2022-08-09T07:12:58.475Z,2.72
2022-08-09T07:16:39.564Z,2.60
2022-08-09T07:19:26.593Z,2.35
2022-08-09T07:22:35.213Z,2.78
2022-08-09T07:25:42.783Z,2.50
2022-08-09T07:29:08.156Z,2.60
2022-08-09T07:32:11.194Z,2.60
2022-08-09T07:35:15.063Z,2.22
2022-08-09T07:38:18.206Z,2.70
2022-08-09T07:41:22.442Z,2.60
2022-08-09T07:44:50.808Z,2.05
2022-08-09T07:48:04.441Z,2.88
2022-08-09T07:52:03.255Z,2.50
2022-08-09T07:54:32.034Z,2.60
2022-08-09T07:57:36.055Z,2.53
2022-08-09T08:00:56.141Z,2.10
2022-08-09T08:04:10.671Z,2.63
2022-08-09T08:08:06.593Z,2.20
2022-08-09T08:10:37.753Z,2.00
2022-08-09T08:13:56.141Z,2.05
2022-08-09T08:17:07.666Z,2.05
2022-08-09T08:20:14.135Z,1.90
2022-08-09T08:23:18.746Z,2.00
2022-08-09T08:26:42.147Z,2.03
2022-08-09T08:29:49.813Z,2.30
2022-08-09T08:32:54.187Z,2.20
2022-08-09T08:36:03.584Z,2.05
2022-08-09T08:39:08.607Z,2.25
2022-08-09T08:42:15.788Z,1.88
2022-08-09T08:45:36.966Z,1.92
2022-08-09T08:48:51.028Z,2.40
2022-08-09T08:52:00.415Z,2.63
2022-08-09T08:55:08.196Z,1.95
2022-08-09T08:58:12.236Z,2.35
2022-08-09T09:01:20.779Z,2.25
2022-08-09T09:04:31.336Z,2.40
2022-08-09T09:07:47.175Z,1.95
2022-08-09T09:10:53.372Z,2.33
2022-08-09T09:13:58.794Z,2.50
2022-08-09T09:17:02.865Z,2.30
2022-08-09T09:20:10.409Z,2.33
2022-08-09T09:23:37.893Z,2.60
2022-08-09T09:26:43.655Z,2.90
2022-08-09T09:30:10.653Z,2.38
2022-08-09T09:33:16.296Z,2.40
2022-08-09T09:36:21.969Z,2.30
2022-08-09T09:39:50.521Z,2.03
2022-08-09T09:42:57.527Z,2.45
2022-08-09T09:49:49.831Z,1.65
2022-08-09T09:52:53.735Z,2.03
2022-08-09T09:56:05.285Z,2.10
2022-08-09T09:59:09.580Z,3.47
2022-08-09T10:02:13.990Z,1.77
2022-08-09T10:05:26.793Z,1.83
2022-08-09T10:08:30.529Z,1.75
2022-08-09T10:11:59.861Z,1.67
2022-08-09T10:15:17.443Z,1.48
2022-08-09T10:18:28.940Z,2.15
2022-08-09T10:21:32.471Z,2.28
2022-08-09T10:24:37.112Z,1.88
2022-08-09T10:27:57.198Z,1.80
2022-08-09T10:34:32.746Z,1.92
2022-08-09T10:37:38.959Z,2.30
2022-08-09T10:40:44.783Z,2.22
2022-08-09T10:44:01.183Z,2.20
2022-08-09T10:48:19.328Z,1.80
2022-08-09T10:51:11.992Z,1.70
2022-08-09T10:54:16.849Z,2.08
2022-08-09T10:57:20.127Z,2.15
2022-08-09T11:00:41.742Z,2.20
2022-08-09T11:04:30.604Z,2.10
2022-08-09T11:07:56.656Z,1.80
2022-08-09T11:11:00.945Z,1.85
2022-08-09T11:14:34.089Z,2.35
2022-08-09T11:17:53.661Z,1.90
2022-08-09T11:21:00.297Z,1.90
2022-08-09T11:24:04.220Z,1.95
2022-08-09T11:28:04.835Z,1.60
2022-08-09T11:30:54.709Z,2.00
2022-08-09T11:34:04.795Z,1.70
2022-08-09T11:37:09.335Z,1.90
2022-08-09T11:40:30.608Z,2.10
2022-08-09T11:43:41.630Z,2.15
2022-08-09T11:46:57.060Z,2.15
2022-08-09T11:50:53.293Z,2.33
2022-08-09T11:54:01.325Z,2.58
2022-08-09T11:56:51.509Z,1.88
2022-08-09T11:59:54.761Z,1.80
2022-08-09T12:02:59.157Z,2.00
2022-08-09T12:06:12.356Z,2.00
2022-08-09T12:09:20.967Z,2.22
2022-08-09T12:12:29.244Z,1.75
2022-08-09T12:15:48.921Z,2.30
2022-08-09T12:18:55.203Z,2.17
2022-08-09T12:22:04.686Z,1.63
2022-08-09T12:25:15.244Z,2.15
2022-08-09T12:29:15.032Z,2.15
2022-08-09T12:32:02.607Z,2.33
2022-08-09T12:35:12.369Z,2.03
2022-08-09T12:38:37.544Z,2.40
2022-08-09T12:41:41.741Z,1.83
2022-08-09T12:44:52.203Z,2.15
2022-08-09T12:47:57.755Z,1.85
2022-08-09T12:51:03.982Z,1.90
2022-08-09T12:54:09.290Z,2.00
2022-08-09T12:57:12.718Z,2.03
2022-08-09T13:00:18.941Z,2.30
2022-08-09T13:03:53.471Z,2.17
2022-08-09T13:06:54.065Z,2.20
2022-08-09T13:10:05.826Z,2.15
2022-08-09T13:13:11.403Z,1.90
2022-08-09T13:16:17.558Z,2.17
2022-08-09T13:20:07.190Z,2.10
2022-08-09T13:23:00.960Z,2.13
2022-08-09T13:26:10.796Z,2.47
2022-08-09T13:29:16.129Z,2.10
2022-08-09T13:32:26.596Z,2.42
2022-08-09T13:35:34.720Z,2.67
2022-08-09T13:38:59.882Z,2.17
2022-08-09T13:42:12.003Z,2.05
2022-08-09T13:45:16.479Z,2.70
2022-08-09T13:48:20.560Z,2.22
2022-08-09T13:51:24.349Z,2.47
2022-08-09T13:54:30.495Z,2.67
2022-08-09T13:57:39.646Z,2.47
2022-08-09T14:00:50.321Z,2.35
2022-08-09T14:04:02.893Z,2.97
2022-08-09T14:07:07.614Z,3.00
2022-08-09T14:10:17.295Z,2.40
2022-08-09T14:14:22.003Z,2.60
2022-08-09T14:16:57.206Z,2.85
2022-08-09T14:20:01.814Z,2.85
2022-08-09T14:23:07.276Z,3.03
2022-08-09T14:26:10.450Z,3.90
2022-08-09T14:29:25.527Z,2.65
2022-08-09T14:32:41.830Z,2.90
2022-08-09T14:35:52.060Z,2.92
2022-08-09T14:38:56.428Z,2.70
2022-08-09T14:41:59.548Z,2.93
2022-08-09T14:47:00.750Z,2.50
2022-08-09T14:48:30.198Z,3.33
2022-08-09T14:51:42.106Z,2.80
2022-08-09T14:54:45.945Z,3.00
2022-08-09T14:57:51.121Z,2.90
2022-08-09T15:00:57.681Z,2.45
2022-08-09T15:04:01.058Z,3.80
2022-08-09T15:07:04.735Z,2.90
2022-08-09T15:10:14.207Z,3.23
2022-08-09T15:13:19.312Z,3.47
2022-08-09T15:16:30.635Z,2.97
2022-08-09T15:19:36.108Z,3.13
2022-08-09T15:22:47.095Z,3.50
2022-08-09T15:25:50.497Z,3.40
2022-08-09T15:28:55.026Z,2.70
2022-08-09T15:31:59.780Z,4.10
2022-08-09T15:35:18.533Z,2.90
2022-08-09T15:38:26.710Z,2.93
2022-08-09T15:41:32.209Z,3.47
2022-08-09T15:44:35.741Z,3.80
2022-08-09T15:47:45.761Z,3.20
2022-08-09T15:50:56.011Z,3.20
2022-08-09T15:54:05.071Z,2.83
2022-08-09T15:57:19.297Z,2.70
2022-08-09T16:00:38.978Z,2.70
2022-08-09T16:03:43.632Z,3.50
2022-08-09T16:06:50.543Z,3.00
2022-08-09T16:10:04.091Z,3.07
2022-08-09T16:13:18.550Z,2.97
2022-08-09T16:16:26.156Z,2.97
2022-08-09T16:19:36.465Z,2.40
2022-08-09T16:22:42.467Z,2.67
2022-08-09T16:25:51.870Z,2.47
2022-08-09T16:29:11.264Z,2.90
2022-08-09T16:32:33.054Z,2.97
2022-08-09T16:35:57.051Z,2.53
2022-08-09T16:39:03.311Z,2.53
2022-08-09T16:42:07.634Z,2.10
2022-08-09T16:45:12.012Z,1.97
2022-08-09T16:48:43.281Z,2.73
2022-08-09T16:51:40.542Z,3.10
2022-08-09T16:54:46.740Z,3.30
2022-08-09T16:58:08.579Z,2.50
2022-08-09T17:01:12.821Z,2.43
2022-08-09T17:04:28.473Z,2.37
2022-08-09T17:08:43.076Z,2.40
2022-08-09T17:10:56.537Z,2.43
2022-08-09T17:14:01.639Z,2.50
2022-08-09T17:17:12.822Z,2.00
2022-08-09T17:20:35.996Z,2.27
2022-08-09T17:24:27.204Z,2.33
2022-08-09T17:27:09.578Z,3.57
2022-08-09T17:30:19.761Z,3.43
2022-08-09T17:33:23.654Z,2.90
2022-08-09T17:36:27.027Z,2.50
2022-08-09T17:39:52.141Z,2.40
2022-08-09T17:42:59.873Z,2.17
2022-08-09T17:46:14.120Z,2.93
2022-08-09T17:49:21.368Z,2.90
2022-08-09T17:52:25.069Z,3.30
2022-08-09T17:55:34.454Z,2.70
2022-08-09T17:58:51.673Z,2.57
2022-08-09T18:02:07.815Z,2.60
2022-08-09T18:05:16.129Z,2.33
2022-08-09T18:08:19.417Z,2.67
2022-08-09T18:11:27.446Z,2.70
2022-08-09T18:14:32.087Z,2.80
2022-08-09T18:18:03.321Z,2.70
2022-08-09T18:21:18.984Z,2.50
2022-08-09T18:24:23.252Z,2.43
2022-08-09T18:28:01.992Z,2.50
2022-08-09T18:30:56.323Z,2.47
2022-08-09T18:33:59.637Z,1.93
2022-08-09T18:37:03.716Z,2.67
2022-08-09T18:40:09.126Z,2.20
2022-08-09T18:43:15.847Z,2.30
2022-08-09T18:46:47.835Z,2.40
2022-08-09T18:49:47.047Z,3.40
2022-08-09T18:52:50.930Z,3.57
2022-08-09T18:55:57.286Z,2.90
2022-08-09T18:59:09.881Z,2.60
2022-08-09T19:02:14.841Z,3.50
2022-08-09T19:05:28.696Z,2.93
2022-08-09T19:08:41.323Z,2.50
2022-08-09T19:11:58.616Z,2.57
2022-08-09T19:15:03.425Z,2.40
2022-08-09T19:18:17.193Z,2.40
2022-08-09T19:21:47.695Z,2.40
2022-08-09T19:25:11.937Z,2.57
2022-08-09T19:28:18.419Z,2.80
2022-08-09T19:31:23.364Z,2.43
2022-08-09T19:34:26.661Z,3.07
2022-08-09T19:37:41.144Z,2.73
2022-08-09T19:40:53.922Z,2.30
2022-08-09T19:44:00.459Z,2.43
2022-08-09T19:47:07.279Z,2.30
2022-08-09T19:50:50.877Z,2.77
2022-08-09T19:53:37.107Z,2.53
2022-08-09T19:56:49.717Z,2.93
2022-08-09T19:59:59.287Z,2.70
2022-08-09T20:04:17.183Z,3.30
2022-08-09T20:06:34.310Z,5.30
2022-08-09T20:09:44.316Z,5.77
2022-08-09T20:12:49.184Z,5.00
2022-08-09T20:16:34.642Z,4.33
2022-08-09T20:19:49.119Z,2.93
2022-08-09T20:22:46.229Z,3.10
2022-08-09T20:25:52.276Z,3.10
2022-08-09T20:28:56.347Z,2.90
2022-08-09T20:32:28.953Z,3.13
2022-08-09T20:35:26.387Z,3.23
2022-08-09T20:38:52.732Z,2.93
2022-08-09T20:41:56.769Z,2.90
2022-08-09T20:45:57.872Z,3.40
2022-08-09T20:48:24.560Z,2.80
2022-08-09T20:51:40.773Z,3.50
2022-08-09T20:54:52.671Z,2.60
2022-08-09T20:58:07.843Z,2.87
2022-08-09T21:01:35.146Z,2.70
2022-08-09T21:05:56.615Z,2.90
2022-08-09T21:08:08.118Z,2.50
2022-08-09T21:14:40.169Z,3.10
2022-08-09T21:18:22.454Z,2.80
2022-08-09T21:21:17.441Z,2.80
2022-08-09T21:24:28.849Z,3.17
2022-08-09T21:27:52.093Z,2.70
2022-08-09T21:30:56.265Z,3.00
2022-08-09T21:33:59.440Z,3.20
2022-08-09T21:37:02.590Z,3.00
2022-08-09T21:40:10.842Z,2.93
2022-08-09T21:43:14.669Z,2.33
2022-08-09T21:46:24.973Z,2.20
2022-08-09T21:49:28.121Z,2.77
2022-08-09T21:52:31.619Z,2.43
2022-08-09T21:55:36.134Z,2.73
2022-08-09T21:58:39.296Z,2.67
2022-08-09T22:02:00.297Z,2.90
2022-08-09T22:05:16.870Z,4.00
2022-08-09T22:08:26.953Z,2.90
2022-08-09T22:12:06.767Z,3.07
2022-08-09T22:14:54.591Z,3.03
2022-08-09T22:17:58.050Z,2.73
2022-08-09T22:21:01.948Z,2.67
2022-08-09T22:24:16.977Z,3.00
2022-08-09T22:27:21.998Z,3.20
2022-08-09T22:30:31.473Z,2.80
2022-08-09T22:33:42.616Z,2.50
2022-08-09T22:36:59.848Z,2.83
2022-08-09T22:40:03.448Z,2.53
2022-08-09T22:43:17.101Z,2.80
2022-08-09T22:48:18.407Z,2.97
2022-08-09T22:49:54.706Z,2.60
2022-08-09T22:52:58.738Z,2.40
2022-08-09T22:56:31.377Z,2.40
2022-08-09T22:59:57.073Z,2.40
2022-08-09T23:02:50.553Z,2.73
2022-08-09T23:05:53.991Z,2.70
2022-08-09T23:08:56.179Z,2.60
2022-08-09T23:11:59.310Z,2.23
2022-08-09T23:15:04.061Z,2.33
2022-08-09T23:18:07.202Z,2.50
2022-08-09T23:21:11.495Z,2.30
2022-08-09T23:24:15.596Z,2.37
2022-08-09T23:27:18.744Z,2.37
2022-08-09T23:30:23.311Z,2.80
2022-08-09T23:33:26.633Z,2.83
2022-08-09T23:36:29.739Z,2.30
2022-08-09T23:39:33.227Z,3.07
2022-08-09T23:42:36.385Z,2.63
2022-08-09T23:45:41.518Z,2.77
2022-08-09T23:48:44.654Z,2.30
2022-08-09T23:51:47.722Z,2.57
2022-08-09T23:54:50.824Z,2.40
2022-08-09T23:58:10.746Z,2.77
